Time;durP1;ratioP1;P1;durP2;ratioP2;P2;SDS_P1;SDS_P2;PMS_P1;PMS_P2;Temp;Humidity;BMP_temperature;BMP_pressure;BME280_temperature;BME280_humidity;BME280_pressure;Samples;Min_cycle;Max_cycle;Signal;HPM_P1;HPM_P2
2023/07/07 00:01:13;;;;;;;7.18;5.85;;;;;;;20.56;81.48;96220.94;5095292;28;20044;-66
2023/07/07 00:03:40;;;;;;;9.13;7.18;;;;;;;20.60;81.15;96216.22;5095285;28;20127;-66
2023/07/07 00:06:08;;;;;;;9.40;6.70;;;;;;;20.61;81.17;96223.19;5095105;28;20052;-66
2023/07/07 00:08:35;;;;;;;8.27;7.13;;;;;;;20.66;82.07;96220.16;5095051;28;20058;-66
2023/07/07 00:11:04;;;;;;;7.18;6.50;;;;;;;20.66;82.00;96223.66;5095154;28;20078;-66
2023/07/07 00:13:32;;;;;;;8.13;6.68;;;;;;;20.65;80.91;96218.47;5095010;28;20513;-65
2023/07/07 00:16:00;;;;;;;8.55;6.70;;;;;;;20.63;81.28;96220.41;5095050;28;20048;-66
2023/07/07 00:18:27;;;;;;;9.57;6.57;;;;;;;20.50;81.07;96217.97;5094871;28;20082;-65
2023/07/07 00:20:55;;;;;;;7.90;6.90;;;;;;;20.50;81.11;96217.97;5094873;28;20404;-66
2023/07/07 00:23:24;;;;;;;6.82;6.10;;;;;;;20.49;81.31;96216.25;5094925;28;20166;-66
2023/07/07 00:26:01;;;;;;;7.32;6.63;;;;;;;20.49;81.07;96222.41;5094387;28;20048;-65
2023/07/07 00:28:30;;;;;;;8.02;7.22;;;;;;;20.45;81.29;96221.00;5094666;28;20126;-66
2023/07/07 00:30:57;;;;;;;6.80;5.60;;;;;;;20.43;81.21;96223.78;5094744;28;20450;-66
2023/07/07 00:33:25;;;;;;;8.73;7.00;;;;;;;20.37;81.25;96216.31;5094639;28;20597;-66
2023/07/07 00:35:52;;;;;;;8.13;5.90;;;;;;;20.34;81.19;96213.91;5094568;28;20469;-66
2023/07/07 00:38:20;;;;;;;7.88;7.00;;;;;;;20.24;81.48;96213.84;5094498;28;20044;-66
2023/07/07 00:40:52;;;;;;;8.20;6.65;;;;;;;20.20;81.38;96215.06;5094411;28;20044;-65
2023/07/07 00:43:20;;;;;;;12.50;6.95;;;;;;;20.17;81.40;96218.81;5094529;28;20040;-66
2023/07/07 00:45:47;;;;;;;7.15;6.45;;;;;;;20.18;81.29;96217.00;5094172;28;20513;-66
2023/07/07 00:48:19;;;;;;;7.10;6.40;;;;;;;20.13;81.34;96214.72;5094304;28;20051;-66
2023/07/07 00:50:49;;;;;;;7.38;6.03;;;;;;;20.17;81.26;96220.63;5094356;28;20169;-66
2023/07/07 00:53:17;;;;;;;8.40;6.65;;;;;;;20.19;80.98;96224.00;5094265;28;20052;-65
2023/07/07 00:55:48;;;;;;;6.78;5.93;;;;;;;20.17;81.22;96220.63;5094147;28;20490;-66
2023/07/07 00:58:19;;;;;;;7.80;6.45;;;;;;;20.07;80.78;96224.03;5094196;28;20052;-66
2023/07/07 01:00:50;;;;;;;7.43;6.72;;;;;;;19.91;82.11;96223.56;5094060;28;20496;-66
2023/07/07 01:03:19;;;;;;;;;;;;;;;19.82;82.65;96210.09;5094482;28;20044;-66
2023/07/07 01:05:48;;;;;;;6.93;6.22;;;;;;;19.79;83.17;96215.66;5093970;28;19920;-66
2023/07/07 01:08:16;;;;;;;6.90;6.30;;;;;;;19.73;83.36;96216.13;5093960;28;20052;-65
2023/07/07 01:10:43;;;;;;;7.00;6.32;;;;;;;19.74;83.38;96216.97;5094020;28;20044;-65
2023/07/07 01:13:10;;;;;;;10.18;6.60;;;;;;;19.73;83.17;96220.59;5094022;28;20098;-65
2023/07/07 01:15:48;;;;;;;10.73;6.32;;;;;;;19.75;83.40;96218.66;5093910;28;20059;-66
2023/07/07 01:18:24;;;;;;;6.88;6.15;;;;;;;19.74;83.30;96215.16;5093755;28;20052;-66
2023/07/07 01:21:02;;;;;;;7.13;5.85;;;;;;;19.70;83.68;96211.94;5093840;28;20044;-66
2023/07/07 01:24:00;;;;;;;8.93;6.60;;;;;;;19.68;83.56;96205.88;5093748;28;20094;-66
2023/07/07 01:26:58;;;;;;;7.30;6.25;;;;;;;19.66;83.87;96206.97;5093361;28;20082;-66
2023/07/07 01:29:50;;;;;;;6.78;5.88;;;;;;;19.65;83.96;96206.13;5093723;28;20054;-66
2023/07/07 01:32:22;;;;;;;9.18;6.60;;;;;;;19.66;83.59;96205.16;5087030;28;20075;-66
2023/07/07 01:34:49;;;;;;;7.78;6.90;;;;;;;19.76;83.44;96205.28;5093593;28;20056;-66
2023/07/07 01:37:16;;;;;;;8.25;6.47;;;;;;;19.88;83.04;96208.75;5092674;28;20097;-66
2023/07/07 01:39:45;;;;;;;7.38;6.00;;;;;;;19.96;82.10;96210.78;5093503;28;20040;-66
2023/07/07 01:42:19;;;;;;;10.55;6.05;;;;;;;20.08;81.68;96201.00;5093438;28;20051;-66
2023/07/07 01:44:57;;;;;;;8.63;6.28;;;;;;;20.14;81.04;96203.13;5093437;28;20040;-66
2023/07/07 01:47:32;;;;;;;6.95;6.25;;;;;;;20.17;80.66;96199.41;5093301;28;20052;-66
2023/07/07 01:50:05;;;;;;;6.97;6.28;;;;;;;20.22;80.89;96207.81;5093378;28;20048;-66
2023/07/07 01:52:37;;;;;;;6.78;5.72;;;;;;;20.20;80.78;96197.31;5093172;28;20079;-67
2023/07/07 01:55:11;;;;;;;6.55;5.95;;;;;;;20.21;80.87;96203.47;5093339;28;20051;-66
2023/07/07 01:57:41;;;;;;;6.93;6.28;;;;;;;20.20;80.33;96197.31;5093285;28;20047;-66
2023/07/07 02:00:10;;;;;;;6.75;5.88;;;;;;;20.18;80.32;96207.22;5093175;28;20055;-66
2023/07/07 02:02:38;;;;;;;5.93;5.43;;;;;;;20.11;80.96;96205.22;5093133;28;20413;-66
2023/07/07 02:05:06;;;;;;;8.45;6.20;;;;;;;20.12;80.65;96209.53;5093213;28;20055;-66
2023/07/07 02:07:33;;;;;;;6.72;6.05;;;;;;;20.06;80.95;96202.94;5093025;28;20140;-66
2023/07/07 02:10:00;;;;;;;7.20;6.45;;;;;;;20.01;80.94;96195.34;5093072;28;20079;-66
2023/07/07 02:12:27;;;;;;;6.85;6.25;;;;;;;19.94;81.24;96202.94;5093114;28;20048;-66
2023/07/07 02:14:54;;;;;;;11.27;5.70;;;;;;;19.91;81.30;96192.56;5093034;28;20102;-66
2023/07/07 02:17:21;;;;;;;6.95;6.22;;;;;;;19.85;81.56;96192.22;5093080;28;20080;-66
2023/07/07 02:19:50;;;;;;;6.70;6.03;;;;;;;19.85;81.79;96185.09;5092995;28;20105;-66
2023/07/07 02:22:17;;;;;;;8.32;6.15;;;;;;;19.85;81.58;96192.22;5092928;28;20052;-66
2023/07/07 02:24:44;;;;;;;6.65;5.80;;;;;;;19.74;82.20;96187.81;5092938;28;20082;-66
2023/07/07 02:27:11;;;;;;;6.35;5.75;;;;;;;19.69;82.14;96190.81;5092927;28;20044;-66
2023/07/07 02:29:38;;;;;;;6.13;5.53;;;;;;;19.63;82.56;96183.34;5093015;28;20044;-65
2023/07/07 02:32:07;;;;;;;7.35;5.85;;;;;;;19.60;82.25;96184.47;5092845;28;20146;-66
2023/07/07 02:34:35;;;;;;;9.02;6.13;;;;;;;19.48;83.12;96188.06;5093032;28;20098;-66
2023/07/07 02:37:12;;;;;;;7.18;5.70;;;;;;;19.55;83.17;96192.78;5092943;28;20048;-66
2023/07/07 02:39:40;;;;;;;11.52;5.78;;;;;;;19.57;83.31;96190.00;5093049;28;20048;-66
2023/07/07 02:42:07;;;;;;;9.95;5.63;;;;;;;19.59;82.49;96195.19;5092919;28;20125;-65
2023/07/07 02:44:34;;;;;;;7.20;5.82;;;;;;;19.52;83.27;96197.47;5092860;28;20079;-66
2023/07/07 02:47:02;;;;;;;6.22;5.60;;;;;;;19.51;82.80;96188.66;5092700;28;20044;-66
2023/07/07 02:49:29;;;;;;;6.30;5.70;;;;;;;19.61;82.55;96191.44;5094721;28;20553;-66
2023/07/07 02:51:56;;;;;;;6.22;5.63;;;;;;;19.63;82.43;96196.63;5096541;28;20052;-66
2023/07/07 02:54:24;;;;;;;6.88;5.18;;;;;;;19.65;81.37;96203.47;5096609;28;20048;-66
2023/07/07 02:56:51;;;;;;;7.75;5.68;;;;;;;19.77;80.95;96201.66;5096510;28;20040;-66
2023/07/07 02:59:18;;;;;;;10.18;4.72;;;;;;;19.93;79.45;96198.59;5096364;28;20091;-66
2023/07/07 03:01:45;;;;;;;5.40;4.93;;;;;;;20.15;78.36;96196.00;5096388;28;20048;-66
2023/07/07 03:04:14;;;;;;;6.05;5.25;;;;;;;20.29;77.56;96200.19;5096470;28;20071;-66
2023/07/07 03:06:41;;;;;;;7.82;4.22;;;;;;;20.43;76.60;96193.72;5096394;28;20044;-66
2023/07/07 03:09:09;;;;;;;5.80;5.30;;;;;;;20.58;75.78;96196.88;5096279;28;20397;-66
2023/07/07 03:11:38;;;;;;;6.95;4.80;;;;;;;20.70;75.09;96206.50;5096311;28;20477;-66
2023/07/07 03:14:05;;;;;;;5.72;5.10;;;;;;;20.81;74.40;96202.06;5096299;28;20482;-66
2023/07/07 03:16:32;;;;;;;6.93;5.25;;;;;;;20.94;73.82;96202.75;5096229;28;20474;-66
2023/07/07 03:19:01;;;;;;;5.60;4.70;;;;;;;21.10;72.45;96213.88;5096103;28;20497;-66
2023/07/07 03:21:29;;;;;;;4.95;4.45;;;;;;;21.19;72.08;96213.91;5095924;28;20052;-66
2023/07/07 03:23:57;;;;;;;10.43;5.47;;;;;;;21.31;71.14;96214.66;5096150;28;20048;-66
2023/07/07 03:26:26;;;;;;;8.02;5.00;;;;;;;21.38;72.07;96219.44;5096023;28;20048;-66
2023/07/07 03:28:55;;;;;;;5.10;4.63;;;;;;;21.48;71.49;96222.13;5095958;28;20087;-66
2023/07/07 03:31:24;;;;;;;5.75;5.25;;;;;;;21.49;71.39;96219.34;5095859;28;20082;-66
2023/07/07 03:33:53;;;;;;;5.50;5.00;;;;;;;21.62;71.16;96220.94;5095865;28;20433;-66
2023/07/07 03:36:23;;;;;;;5.97;4.60;;;;;;;21.63;71.34;96207.50;5095911;28;20122;-66
2023/07/07 03:38:50;;;;;;;6.88;5.50;;;;;;;21.67;72.27;96216.88;5095909;28;20048;-67
2023/07/07 03:41:19;;;;;;;5.63;4.63;;;;;;;21.66;72.07;96223.19;5095599;28;20052;-66
2023/07/07 03:43:46;;;;;;;5.63;4.90;;;;;;;21.69;71.56;96227.38;5095702;28;20076;-66
2023/07/07 03:46:16;;;;;;;7.00;4.70;;;;;;;21.89;72.12;96227.47;5095463;28;20044;-66
2023/07/07 03:48:43;;;;;;;6.05;5.10;;;;;;;22.11;71.39;96230.88;5095528;28;20087;-65
2023/07/07 03:51:12;;;;;;;5.43;4.53;;;;;;;22.44;71.20;96231.44;5095618;28;20401;-67
2023/07/07 03:53:39;;;;;;;6.10;4.57;;;;;;;22.78;70.96;96232.88;5095552;28;20052;-66
2023/07/07 03:56:07;;;;;;;7.18;4.55;;;;;;;23.14;69.66;96229.56;5095370;28;20044;-66
2023/07/07 03:58:34;;;;;;;5.65;4.78;;;;;;;23.48;68.89;96234.38;5095239;28;20565;-66
2023/07/07 04:01:02;;;;;;;4.88;4.38;;;;;;;23.81;66.75;96245.44;5094294;28;20153;-66
2023/07/07 04:03:31;;;;;;;7.75;4.43;;;;;;;24.17;66.15;96235.84;5095277;28;20103;-67
2023/07/07 04:05:59;;;;;;;4.60;3.88;;;;;;;24.50;64.60;96230.78;5095175;28;20478;-67
2023/07/07 04:08:27;;;;;;;7.78;4.75;;;;;;;24.67;63.29;96233.59;5095132;28;20055;-67
2023/07/07 04:11:01;;;;;;;9.77;4.53;;;;;;;24.95;60.34;96237.03;5095071;28;20044;-67
2023/07/07 04:13:29;;;;;;;5.32;4.30;;;;;;;25.28;60.49;96240.94;5095141;28;20098;-67
2023/07/07 04:16:02;;;;;;;5.20;4.32;;;;;;;25.69;60.30;96237.63;5095007;28;20051;-67
2023/07/07 04:18:32;;;;;;;5.65;4.35;;;;;;;25.96;60.18;96233.03;5095011;28;20482;-67
2023/07/07 04:21:01;;;;;;;4.75;4.15;;;;;;;26.26;57.58;96236.13;5094843;28;20047;-66
2023/07/07 04:23:29;;;;;;;6.82;4.18;;;;;;;26.54;57.58;96243.03;5094809;28;20101;-67
2023/07/07 04:25:56;;;;;;;5.53;4.53;;;;;;;26.74;57.05;96246.25;5094954;28;20048;-67
2023/07/07 04:28:24;;;;;;;5.20;4.25;;;;;;;26.96;57.43;96246.56;5094788;28;20486;-67
2023/07/07 04:30:52;;;;;;;7.43;4.35;;;;;;;27.14;53.51;96248.25;5094674;28;20044;-66
2023/07/07 04:33:19;;;;;;;4.70;4.18;;;;;;;27.25;55.49;96242.53;5094674;28;20083;-67
2023/07/07 04:35:54;;;;;;;4.72;3.95;;;;;;;27.36;51.04;96244.00;5094771;28;20079;-67
2023/07/07 04:38:22;;;;;;;6.20;4.40;;;;;;;27.70;50.84;96244.75;5094553;28;20555;-67
2023/07/07 04:40:49;;;;;;;5.43;3.97;;;;;;;27.96;50.23;96249.84;5094394;28;20101;-67
2023/07/07 04:43:16;;;;;;;4.57;4.18;;;;;;;28.21;49.25;96246.19;5094550;28;20055;-67
2023/07/07 04:45:45;;;;;;;6.03;3.78;;;;;;;28.38;48.39;96255.00;5094250;28;20475;-67
2023/07/07 04:48:12;;;;;;;5.70;4.35;;;;;;;28.62;48.86;96253.16;5094324;28;20048;-67
2023/07/07 04:50:39;;;;;;;5.55;3.88;;;;;;;28.59;47.59;96248.97;5094453;28;20517;-67
2023/07/07 04:53:08;;;;;;;10.43;3.75;;;;;;;28.47;49.38;96253.94;5094291;28;20055;-67
2023/07/07 04:55:43;;;;;;;6.70;4.40;;;;;;;28.37;50.21;96254.19;5094349;28;20048;-67
2023/07/07 04:58:11;;;;;;;6.05;3.97;;;;;;;28.26;49.30;96250.00;5094158;28;20130;-67
2023/07/07 05:00:38;;;;;;;4.50;4.10;;;;;;;28.05;49.91;96256.00;5094195;28;20075;-67
2023/07/07 05:03:05;;;;;;;4.50;4.10;;;;;;;28.27;51.65;96258.94;5094108;28;20444;-67
2023/07/07 05:05:35;;;;;;;6.68;3.92;;;;;;;28.46;48.33;96263.03;5094101;28;20043;-67
2023/07/07 05:08:03;;;;;;;6.75;4.45;;;;;;;28.63;48.25;96263.72;5094158;28;20076;-67
2023/07/07 05:10:31;;;;;;;5.78;4.10;;;;;;;28.97;47.69;96264.34;5094023;28;20048;-67
2023/07/07 05:12:58;;;;;;;4.38;3.83;;;;;;;29.29;48.06;96268.75;5093917;28;20044;-66
2023/07/07 05:15:25;;;;;;;6.38;3.88;;;;;;;29.63;47.74;96267.41;5093903;28;20047;-67
2023/07/07 05:17:53;;;;;;;6.90;4.20;;;;;;;29.91;46.25;96268.63;5093867;28;20406;-67
2023/07/07 05:20:20;;;;;;;5.35;3.97;;;;;;;30.10;46.90;96276.09;5093900;28;20058;-67
2023/07/07 05:22:47;;;;;;;4.75;4.20;;;;;;;30.12;45.68;96268.66;5093782;28;20047;-67
2023/07/07 05:25:15;;;;;;;4.63;4.05;;;;;;;30.27;44.72;96276.75;5093838;28;20044;-67
2023/07/07 05:27:43;;;;;;;7.75;4.45;;;;;;;30.42;44.56;96269.63;5093677;28;20127;-67
2023/07/07 05:30:11;;;;;;;5.35;4.18;;;;;;;30.59;45.98;96267.53;5093615;28;20051;-67
2023/07/07 05:32:38;;;;;;;7.90;4.00;;;;;;;30.61;44.74;96271.69;5093538;28;20490;-66
2023/07/07 05:35:07;;;;;;;5.07;4.57;;;;;;;30.96;44.63;96271.00;5093538;28;20051;-67
2023/07/07 05:37:34;;;;;;;7.57;4.60;;;;;;;31.10;44.66;96271.13;5093548;28;20059;-67
2023/07/07 05:40:01;;;;;;;7.03;4.22;;;;;;;31.19;42.42;96271.81;5093529;28;20047;-67
2023/07/07 05:42:30;;;;;;;5.00;4.50;;;;;;;31.26;41.46;96273.53;5093274;28;20067;-67
2023/07/07 05:44:58;;;;;;;5.00;4.43;;;;;;;31.37;41.59;96266.78;5093381;28;20048;-67
2023/07/07 05:47:26;;;;;;;5.90;4.18;;;;;;;31.49;41.57;96268.91;5093119;28;20056;-67
2023/07/07 05:49:56;;;;;;;8.02;4.47;;;;;;;31.72;40.49;96267.81;5093411;28;20474;-67
2023/07/07 05:52:23;;;;;;;6.47;4.72;;;;;;;31.90;41.52;96273.50;5093688;28;20044;-67
2023/07/07 05:54:51;;;;;;;8.77;5.20;;;;;;;32.01;39.73;96271.28;5093380;28;20048;-67
2023/07/07 05:57:19;;;;;;;5.80;5.15;;;;;;;31.85;41.04;96270.59;5093266;28;20044;-67
2023/07/07 05:59:46;;;;;;;5.72;4.75;;;;;;;31.92;39.41;96277.88;5093161;28;20055;-67
2023/07/07 06:02:14;;;;;;;8.02;4.93;;;;;;;32.23;41.06;96276.59;5093141;28;20044;-67
2023/07/07 06:04:42;;;;;;;5.10;4.65;;;;;;;32.39;38.97;96280.78;5093240;28;20048;-68
2023/07/07 06:07:09;;;;;;;6.00;4.57;;;;;;;32.70;40.03;96284.84;5093163;28;20051;-68
2023/07/07 06:09:36;;;;;;;5.85;4.93;;;;;;;32.73;37.88;96279.00;5093169;28;20044;-67
2023/07/07 06:12:04;;;;;;;5.47;4.97;;;;;;;32.40;38.18;96282.44;5093092;28;20486;-67
2023/07/07 06:14:31;;;;;;;6.53;5.13;;;;;;;31.96;38.53;96284.59;5093173;28;20048;-67
2023/07/07 06:16:59;;;;;;;7.10;5.43;;;;;;;31.58;39.42;96273.13;5093064;28;20410;-67
2023/07/07 06:19:27;;;;;;;6.93;6.22;;;;;;;31.25;39.87;96274.56;5093189;28;20048;-67
2023/07/07 06:21:54;;;;;;;8.88;5.72;;;;;;;31.09;41.50;96272.97;5093135;28;20052;-67
2023/07/07 06:24:21;;;;;;;5.70;5.10;;;;;;;30.94;41.14;96274.94;5094952;28;20040;-67
2023/07/07 06:26:48;;;;;;;5.95;5.43;;;;;;;30.60;41.29;96275.44;5097091;28;20079;-67
2023/07/07 06:29:16;;;;;;;7.05;5.78;;;;;;;30.84;42.10;96275.25;5097112;28;20052;-67
2023/07/07 06:31:43;;;;;;;6.15;5.55;;;;;;;30.91;41.15;96276.13;5096977;28;20084;-67
2023/07/07 06:34:10;;;;;;;7.95;5.85;;;;;;;31.26;40.68;96278.09;5096899;28;20044;-67
2023/07/07 06:36:39;;;;;;;6.32;5.50;;;;;;;31.73;41.23;96266.78;5096946;28;20072;-67
2023/07/07 06:39:07;;;;;;;6.97;6.00;;;;;;;32.07;39.69;96270.50;5096850;28;20075;-67
2023/07/07 06:41:34;;;;;;;5.88;5.15;;;;;;;32.19;37.68;96269.91;5096767;28;20484;-67
2023/07/07 06:44:01;;;;;;;5.82;5.32;;;;;;;32.01;38.36;96282.94;5096762;28;20494;-67
2023/07/07 06:46:29;;;;;;;7.50;6.07;;;;;;;32.00;38.18;96278.56;5096565;28;20109;-67
2023/07/07 06:48:56;;;;;;;8.05;5.55;;;;;;;32.16;38.14;96279.25;5096784;28;20097;-67
2023/07/07 06:51:24;;;;;;;7.43;5.78;;;;;;;32.46;38.26;96280.78;5096714;28;20051;-67
2023/07/07 06:53:53;;;;;;;9.05;5.57;;;;;;;32.68;37.63;96280.69;5096721;28;20559;-67
2023/07/07 06:56:20;;;;;;;6.82;5.70;;;;;;;32.76;36.94;96275.91;5096639;28;20075;-67
2023/07/07 06:58:47;;;;;;;7.32;6.05;;;;;;;32.69;36.61;96272.34;5096492;28;20047;-67
2023/07/07 07:01:16;;;;;;;5.65;5.15;;;;;;;32.85;35.96;96278.38;5096471;28;20044;-67
2023/07/07 07:03:45;;;;;;;6.53;5.72;;;;;;;32.98;37.14;96274.84;5096274;28;20048;-67
2023/07/07 07:06:14;;;;;;;6.60;5.72;;;;;;;33.14;36.47;96276.34;5096301;28;20076;-67
2023/07/07 07:08:41;;;;;;;6.15;5.55;;;;;;;33.48;36.04;96276.31;5096315;28;20052;-67
2023/07/07 07:11:10;;;;;;;6.75;5.68;;;;;;;33.51;34.64;96278.59;5096318;28;20078;-67
2023/07/07 07:13:39;;;;;;;7.13;6.20;;;;;;;33.89;36.58;96277.91;5096334;28;20087;-67
2023/07/07 07:16:07;;;;;;;7.13;5.47;;;;;;;34.38;35.26;96280.25;5096221;28;20047;-67
2023/07/07 07:18:34;;;;;;;8.35;5.90;;;;;;;34.34;33.02;96281.69;5096090;28;20300;-67
2023/07/07 07:21:03;;;;;;;8.15;5.53;;;;;;;34.60;32.87;96287.19;5096193;28;20071;-67
2023/07/07 07:23:33;;;;;;;7.45;5.45;;;;;;;34.56;33.98;96281.38;5096020;28;20391;-67
2023/07/07 07:26:04;;;;;;;7.68;5.57;;;;;;;34.54;33.06;96278.88;5096204;28;20048;-67
2023/07/07 07:28:36;;;;;;;8.35;5.13;;;;;;;34.25;31.02;96278.41;5096165;28;20135;-67
2023/07/07 07:31:04;;;;;;;7.10;5.60;;;;;;;33.91;35.41;96283.94;5095981;28;20044;-67
2023/07/07 07:33:32;;;;;;;11.45;5.45;;;;;;;33.98;34.50;96280.38;5095866;28;20062;-67
2023/07/07 07:35:59;;;;;;;8.23;6.07;;;;;;;33.97;32.96;96292.25;5094613;28;20113;-67
2023/07/07 07:38:27;;;;;;;7.05;6.13;;;;;;;34.03;34.30;96285.97;5095787;28;20047;-67
2023/07/07 07:40:55;;;;;;;6.30;5.35;;;;;;;34.09;33.66;96293.25;5095819;28;20123;-67
2023/07/07 07:43:22;;;;;;;7.50;5.35;;;;;;;34.39;33.64;96302.75;5095459;28;20106;-67
2023/07/07 07:45:51;;;;;;;6.70;6.10;;;;;;;34.28;33.28;96296.97;5095400;28;20507;-67
2023/07/07 07:48:18;;;;;;;8.43;5.45;;;;;;;34.41;33.34;96292.53;5095587;28;20044;-68
2023/07/07 07:50:45;;;;;;;7.57;5.40;;;;;;;34.52;32.34;96299.97;5095538;28;20044;-68
2023/07/07 07:53:12;;;;;;;5.55;4.90;;;;;;;34.73;33.28;96300.72;5095447;28;20043;-68
2023/07/07 07:55:40;;;;;;;7.45;4.97;;;;;;;34.80;32.51;96297.97;5095324;28;20054;-68
2023/07/07 07:58:07;;;;;;;6.10;5.50;;;;;;;34.96;33.07;96295.75;5095498;28;20040;-68
2023/07/07 08:00:34;;;;;;;9.38;5.63;;;;;;;34.95;30.76;96300.38;5095353;28;20048;-68
2023/07/07 08:03:02;;;;;;;6.00;5.28;;;;;;;34.83;31.74;96293.97;5095162;28;20082;-68
2023/07/07 08:05:30;;;;;;;5.90;5.30;;;;;;;34.95;33.07;96294.94;5095358;28;20048;-68
2023/07/07 08:07:58;;;;;;;8.20;5.25;;;;;;;35.01;33.30;96298.66;5095226;28;20051;-68
2023/07/07 08:10:25;;;;;;;5.82;5.10;;;;;;;35.00;30.49;96297.00;5095187;28;20090;-68
2023/07/07 08:12:53;;;;;;;6.50;5.32;;;;;;;34.85;30.64;96295.41;5095028;28;20048;-68
2023/07/07 08:15:21;;;;;;;5.30;4.80;;;;;;;34.83;32.56;96302.13;5095015;28;20052;-68
2023/07/07 08:17:49;;;;;;;7.75;5.18;;;;;;;34.98;32.39;96289.06;5095099;28;20127;-68
2023/07/07 08:20:20;;;;;;;5.93;5.35;;;;;;;35.30;31.64;96288.19;5094901;28;20040;-68
2023/07/07 08:22:47;;;;;;;7.82;5.05;;;;;;;35.33;30.36;96295.88;5094926;28;20383;-68
2023/07/07 08:25:14;;;;;;;6.57;4.53;;;;;;;35.54;32.33;96297.38;5094740;28;20486;-68
2023/07/07 08:27:42;;;;;;;9.27;4.70;;;;;;;35.50;31.07;96296.16;5094980;28;20071;-68
2023/07/07 08:30:11;;;;;;;5.00;4.60;;;;;;;35.41;31.41;96301.06;5094814;28;20075;-68
2023/07/07 08:32:38;;;;;;;5.55;4.80;;;;;;;35.29;30.66;96300.97;5094753;28;20043;-68
2023/07/07 08:35:06;;;;;;;5.68;5.07;;;;;;;35.44;31.10;96294.34;5094632;28;20048;-68
2023/07/07 08:37:35;;;;;;;6.07;4.65;;;;;;;35.12;29.87;96297.09;5094535;28;20052;-68
2023/07/07 08:40:02;;;;;;;16.67;5.43;;;;;;;35.12;31.38;96294.41;5094531;28;20139;-68
2023/07/07 08:42:33;;;;;;;5.78;4.82;;;;;;;35.02;30.90;96301.16;5094480;28;20066;-68
2023/07/07 08:45:04;;;;;;;5.47;4.32;;;;;;;35.24;30.82;96303.50;5094684;28;20052;-68
2023/07/07 08:47:47;;;;;;;7.65;5.22;;;;;;;34.99;29.56;96307.00;5094012;28;20048;-68
2023/07/07 08:50:23;;;;;;;6.75;4.45;;;;;;;34.95;30.15;96313.94;5094390;28;20047;-68
2023/07/07 08:53:00;;;;;;;7.05;4.65;;;;;;;34.77;30.54;96299.25;5094273;28;20520;-68
2023/07/07 08:55:39;;;;;;;6.30;4.57;;;;;;;34.76;32.48;96302.19;5094268;28;20409;-68
2023/07/07 08:58:12;;;;;;;5.05;4.55;;;;;;;34.64;31.04;96291.97;5094197;28;20048;-68
2023/07/07 09:00:52;;;;;;;5.85;4.63;;;;;;;34.59;31.26;96289.09;5094273;28;20075;-68
2023/07/07 09:03:33;;;;;;;5.03;4.53;;;;;;;34.69;32.37;96287.78;5094037;28;20119;-68
2023/07/07 09:06:13;;;;;;;7.25;5.18;;;;;;;34.90;31.32;96292.03;5094090;28;20578;-68
2023/07/07 09:08:48;;;;;;;4.95;4.40;;;;;;;34.85;29.85;96305.47;5094173;28;20080;-68
2023/07/07 09:11:26;;;;;;;7.25;4.30;;;;;;;34.84;31.15;96304.63;5094143;28;20044;-68
2023/07/07 09:13:57;;;;;;;4.32;3.92;;;;;;;34.85;27.79;96300.03;5094024;28;20562;-68
2023/07/07 09:16:29;;;;;;;4.45;4.05;;;;;;;34.76;28.97;96303.00;5094003;28;20127;-68
2023/07/07 09:19:03;;;;;;;4.97;4.05;;;;;;;34.63;30.17;96305.75;5093901;28;20056;-68
2023/07/07 09:21:41;;;;;;;9.25;4.93;;;;;;;34.60;32.03;96309.75;5093806;28;20055;-68
2023/07/07 09:24:17;;;;;;;5.03;4.53;;;;;;;34.13;31.08;96291.81;5093833;28;20059;-67
2023/07/07 09:26:48;;;;;;;5.07;4.40;;;;;;;33.31;30.83;96289.47;5093677;28;20482;-68
2023/07/07 09:29:22;;;;;;;5.68;5.03;;;;;;;32.67;32.97;96282.53;5093661;28;20043;-68
2023/07/07 09:31:50;;;;;;;6.78;5.40;;;;;;;32.22;32.91;96281.16;5093662;28;20067;-67
2023/07/07 09:34:17;;;;;;;5.35;4.85;;;;;;;32.06;32.82;96284.22;5093772;28;20044;-67
2023/07/07 09:36:55;;;;;;;5.70;4.80;;;;;;;31.73;35.07;96299.19;5093766;28;20123;-67
2023/07/07 09:39:51;;;;;;;7.28;5.30;;;;;;;31.32;36.60;96288.09;5093530;28;20486;-68
2023/07/07 09:42:37;;;;;;;6.20;5.10;;;;;;;31.11;36.30;96291.66;5093407;28;20131;-67
2023/07/07 09:45:27;;;;;;;7.40;4.90;;;;;;;30.57;38.34;96305.47;5093383;28;20040;-67
2023/07/07 09:48:09;;;;;;;5.60;4.90;;;;;;;30.53;38.28;96301.50;5090655;28;20044;-67
2023/07/07 09:50:43;;;;;;;5.55;5.05;;;;;;;30.57;40.44;96304.63;5093439;28;20058;-68
2023/07/07 09:53:17;;;;;;;5.88;5.32;;;;;;;30.41;37.44;96300.31;5093467;28;20105;-67
2023/07/07 09:55:47;;;;;;;6.65;4.93;;;;;;;30.46;38.51;96296.03;5093205;28;20075;-67
2023/07/07 09:58:18;;;;;;;6.22;5.63;;;;;;;30.37;39.17;96283.69;5092551;28;20113;-68
2023/07/07 10:00:51;;;;;;;11.02;5.43;;;;;;;30.36;39.65;96287.41;5093185;28;20443;-67
2023/07/07 10:03:24;;;;;;;8.27;5.40;;;;;;;30.19;39.79;96279.53;5093113;28;20058;-67
2023/07/07 10:05:54;;;;;;;7.20;5.55;;;;;;;30.05;39.95;96275.84;5093204;28;20040;-68
2023/07/07 10:08:22;;;;;;;7.95;5.25;;;;;;;30.01;40.66;96277.25;5093214;28;20466;-67
2023/07/07 10:10:59;;;;;;;5.65;5.05;;;;;;;29.87;41.01;96281.63;5093244;28;20056;-67
2023/07/07 10:13:27;;;;;;;7.55;5.45;;;;;;;29.83;41.61;96275.75;5093067;28;20127;-67
2023/07/07 10:15:59;;;;;;;6.25;5.22;;;;;;;29.81;41.66;96274.28;5093107;28;20051;-67
2023/07/07 10:18:32;;;;;;;11.38;5.78;;;;;;;29.88;41.61;96275.19;5093027;28;20070;-67
2023/07/07 10:21:08;;;;;;;7.05;6.03;;;;;;;29.94;41.55;96276.31;5093093;28;20050;-67
2023/07/07 10:23:39;;;;;;;7.55;5.38;;;;;;;29.98;42.56;96269.53;5092942;28;20048;-67
2023/07/07 10:26:11;;;;;;;10.80;5.65;;;;;;;30.13;41.07;96273.00;5093020;28;20115;-67
2023/07/07 10:28:39;;;;;;;8.75;5.63;;;;;;;30.16;43.26;96265.59;5093039;28;20119;-67
2023/07/07 10:31:09;;;;;;;6.85;5.30;;;;;;;30.38;41.80;96263.78;5093064;28;20063;-67
2023/07/07 10:33:39;;;;;;;7.28;5.55;;;;;;;30.47;40.66;96270.75;5092916;28;20557;-67
2023/07/07 10:36:19;;;;;;;5.38;4.88;;;;;;;30.64;40.21;96268.59;5092904;28;20520;-67
2023/07/07 10:38:48;;;;;;;;;;;;;;;30.81;40.47;96268.38;5093424;28;20098;-67
2023/07/07 10:41:17;;;;;;;10.80;5.25;;;;;;;31.15;38.00;96276.75;5092863;28;19927;-67
2023/07/07 10:43:44;;;;;;;5.70;4.78;;;;;;;31.21;38.47;96272.44;5092791;28;20056;-67
2023/07/07 10:46:12;;;;;;;6.72;4.30;;;;;;;31.47;37.57;96274.53;5092533;28;20405;-67
2023/07/07 10:48:43;;;;;;;5.75;3.95;;;;;;;31.74;37.24;96268.44;5092864;28;20500;-67
2023/07/07 10:51:24;;;;;;;6.50;4.70;;;;;;;31.79;37.56;96271.38;5092876;28;20048;-67
2023/07/07 10:54:01;;;;;;;5.82;4.57;;;;;;;31.82;38.75;96262.88;5092825;28;20113;-67
2023/07/07 10:56:34;;;;;;;5.75;4.60;;;;;;;31.76;35.89;96267.19;5092737;28;20055;-67
2023/07/07 10:59:30;;;;;;;5.32;4.55;;;;;;;31.72;36.29;96265.09;5092612;28;20048;-68
2023/07/07 11:02:19;;;;;;;5.45;4.95;;;;;;;31.89;36.57;96262.88;5092746;28;20051;-67
2023/07/07 11:05:20;;;;;;;5.63;4.53;;;;;;;32.05;37.47;96263.63;5092675;28;20048;-67
2023/07/07 11:08:01;;;;;;;6.70;4.38;;;;;;;32.03;35.74;96261.94;5092636;28;20101;-67
2023/07/07 11:11:01;;;;;;;5.78;4.32;;;;;;;32.05;36.03;96261.72;5094408;28;20044;-68
2023/07/07 11:13:50;;;;;;;5.13;4.63;;;;;;;32.15;35.57;96262.19;5096118;28;20051;-67
2023/07/07 11:16:25;;;;;;;5.10;4.25;;;;;;;32.27;38.79;96257.03;5096179;28;20044;-67
2023/07/07 11:19:05;;;;;;;5.18;4.68;;;;;;;32.29;35.57;96259.53;5096294;28;20048;-67
2023/07/07 11:21:45;;;;;;;4.93;4.43;;;;;;;32.07;38.77;96253.41;5096018;28;20403;-67
2023/07/07 11:24:16;;;;;;;6.07;5.22;;;;;;;32.22;37.72;96251.41;5095925;28;20058;-67
2023/07/07 11:27:10;;;;;;;6.80;5.75;;;;;;;32.18;37.06;96249.31;5096004;28;20485;-67
2023/07/07 11:29:53;;;;;;;8.65;5.22;;;;;;;32.18;37.68;96246.59;5095933;28;20052;-67
2023/07/07 11:32:34;;;;;;;5.80;5.07;;;;;;;32.32;37.42;96247.47;5095878;28;20118;-67
2023/07/07 11:35:34;;;;;;;12.00;5.93;;;;;;;32.26;37.10;96246.41;5095892;28;20405;-67
2023/07/07 11:38:29;;;;;;;8.20;5.22;;;;;;;32.37;34.99;96253.94;5095899;28;20048;-67
2023/07/07 11:41:00;;;;;;;4.60;4.20;;;;;;;32.06;37.37;96247.19;5095725;28;20084;-67
2023/07/07 11:44:01;;;;;;;6.38;4.93;;;;;;;31.97;36.26;96262.75;5095673;28;20094;-67
2023/07/07 11:46:53;;;;;;;7.28;4.75;;;;;;;32.04;36.19;96249.25;5095463;28;20521;-67
2023/07/07 11:49:44;;;;;;;8.35;5.75;;;;;;;32.10;36.58;96234.94;5095597;28;20044;-67
2023/07/07 11:52:31;;;;;;;5.53;4.97;;;;;;;32.27;37.38;96237.28;5095424;28;20044;-67